Barry Square, Connecticut
Current Conditions -  °F | °C
As of 5:53 PM on Thursday 27 Nov 2014 (Local Time) from KHFD Reporting Station
Light Snow Light Snow  
Wind Chill: 29°   Ceiling: 2200
Heat Index: 34°   Visibility: 6mi
Dew Point: 29°   Wind: 6mph
Humidity: 82%   Direction: NA
Pressure: 30"   Gusts: NA
Location:  41.7391°N, 72.6703°W
Report Text: KHFD 272253Z VRB05KT 6SM -SN BKN022 BKN026 OVC038 01/M02 A3000 RMK AO2 SNE05B46 SLP159 P0000 T00111017
Loading
Personal Weather Stations






























Interactive Weather Map New forecast layout! Learn more

10-Day Weather Forecast

Advertisements
Track Severe Weather on mobile